createdAt,value
2022-08-30T00:02:50.626Z,90.85
2022-08-30T00:05:52.314Z,91.79
2022-08-30T00:08:58.272Z,91.23
2022-08-30T00:11:59.937Z,91.59
2022-08-30T00:15:01.822Z,92.61
2022-08-30T00:18:03.407Z,93.36
2022-08-30T00:21:05.181Z,93.13
2022-08-30T00:24:06.769Z,92.76
2022-08-30T00:27:08.485Z,92.44
2022-08-30T00:30:10.301Z,92.53
2022-08-30T00:33:11.916Z,91.99
2022-08-30T00:36:13.571Z,92.62
2022-08-30T00:39:15.166Z,92.51
2022-08-30T00:42:17.544Z,93.78
2022-08-30T00:45:21.490Z,93.70
2022-08-30T00:48:23.472Z,93.94
2022-08-30T00:51:26.273Z,94.07
2022-08-30T00:54:28.335Z,94.93
2022-08-30T00:57:30.709Z,95.08
2022-08-30T01:00:32.386Z,95.74
2022-08-30T01:03:34.121Z,95.07
2022-08-30T01:06:36.086Z,94.85
2022-08-30T01:09:37.665Z,95.53
2022-08-30T01:12:39.251Z,94.90
2022-08-30T01:15:41.781Z,95.34
2022-08-30T01:18:43.608Z,95.53
2022-08-30T01:21:47.050Z,95.22
2022-08-30T01:24:48.598Z,95.33
2022-08-30T01:28:10.405Z,94.88
2022-08-30T01:31:13.286Z,94.75
2022-08-30T01:34:14.871Z,94.85
2022-08-30T01:37:18.019Z,94.36
2022-08-30T01:40:19.995Z,94.33
2022-08-30T01:43:21.578Z,94.16
2022-08-30T01:46:24.485Z,94.30
2022-08-30T01:49:27.898Z,93.92
2022-08-30T01:52:30.166Z,94.49
2022-08-30T01:55:32.439Z,94.47
2022-08-30T01:58:34.805Z,94.35
2022-08-30T02:01:37.246Z,94.21
2022-08-30T02:04:38.907Z,94.27
2022-08-30T02:07:40.496Z,94.31
2022-08-30T02:10:42.086Z,94.94
2022-08-30T02:13:44.249Z,94.69
2022-08-30T02:16:46.416Z,94.61
2022-08-30T02:19:48.022Z,94.30
2022-08-30T02:22:49.671Z,94.15
2022-08-30T02:25:51.235Z,93.41
2022-08-30T02:28:53.129Z,92.89
2022-08-30T02:31:54.719Z,92.41
2022-08-30T02:34:56.310Z,91.72
2022-08-30T02:37:57.987Z,91.69
2022-08-30T02:40:59.593Z,91.58
2022-08-30T02:44:01.290Z,90.86
2022-08-30T02:47:03.021Z,90.61
2022-08-30T02:50:05.564Z,90.12
2022-08-30T02:53:07.247Z,89.80
2022-08-30T02:56:11.734Z,89.60
2022-08-30T02:59:13.660Z,89.35
2022-08-30T03:02:15.385Z,89.60
2022-08-30T03:05:17.294Z,90.24
2022-08-30T03:08:18.905Z,90.71
2022-08-30T03:11:22.402Z,90.53
2022-08-30T03:14:25.509Z,91.32
2022-08-30T03:17:27.108Z,91.53
2022-08-30T03:20:28.751Z,91.67
2022-08-30T03:23:30.301Z,92.12
2022-08-30T03:26:31.877Z,92.63
2022-08-30T03:29:33.681Z,92.66
2022-08-30T03:32:35.386Z,93.31
2022-08-30T03:35:36.958Z,93.62
2022-08-30T03:38:38.870Z,93.67
2022-08-30T03:41:40.494Z,94.08
2022-08-30T03:44:42.904Z,94.45
2022-08-30T03:47:44.646Z,94.27
2022-08-30T03:50:46.281Z,93.74
2022-08-30T03:53:47.863Z,93.63
2022-08-30T03:56:49.445Z,92.87
2022-08-30T03:59:51.182Z,92.46
2022-08-30T04:02:52.752Z,92.44
2022-08-30T04:05:55.365Z,92.31
2022-08-30T04:08:56.937Z,91.66
2022-08-30T04:12:00.233Z,91.56
2022-08-30T04:15:02.082Z,91.08
2022-08-30T04:18:03.689Z,91.54
2022-08-30T04:21:05.559Z,91.14
2022-08-30T04:24:07.342Z,90.78
2022-08-30T04:27:09.151Z,91.20
2022-08-30T04:30:12.150Z,92.26
2022-08-30T04:33:13.883Z,91.87
2022-08-30T04:36:15.465Z,92.11
2022-08-30T04:39:19.894Z,91.99
2022-08-30T04:42:21.576Z,91.69
2022-08-30T04:45:23.182Z,91.91
2022-08-30T04:48:24.866Z,91.04
2022-08-30T04:51:26.442Z,91.03
2022-08-30T04:54:28.573Z,91.55
2022-08-30T04:57:30.192Z,91.26
2022-08-30T05:00:32.007Z,91.12
2022-08-30T05:03:33.599Z,90.93
2022-08-30T05:06:35.285Z,91.28
2022-08-30T05:09:37.706Z,91.16
2022-08-30T05:12:39.736Z,91.06
2022-08-30T05:15:41.386Z,90.98
2022-08-30T05:18:43.511Z,90.79
2022-08-30T05:21:45.541Z,90.53
2022-08-30T05:24:47.125Z,89.57
2022-08-30T05:27:48.931Z,89.45
2022-08-30T05:30:50.509Z,89.60
2022-08-30T05:33:52.825Z,90.22
2022-08-30T05:36:54.482Z,89.10
2022-08-30T05:39:56.719Z,89.17
2022-08-30T05:42:58.372Z,89.64
2022-08-30T05:46:01.032Z,89.44
2022-08-30T05:49:03.386Z,89.49
2022-08-30T05:52:05.363Z,89.21
2022-08-30T05:55:07.783Z,89.44
2022-08-30T05:58:09.434Z,89.25
2022-08-30T06:01:21.281Z,88.48
2022-08-30T06:04:22.893Z,89.08
2022-08-30T06:07:24.454Z,88.92
2022-08-30T06:10:26.052Z,88.99
2022-08-30T06:13:27.635Z,88.28
2022-08-30T06:16:29.317Z,88.49
2022-08-30T06:19:30.952Z,87.78
2022-08-30T06:22:32.549Z,87.66
2022-08-30T06:25:41.356Z,87.75
2022-08-30T06:28:43.846Z,87.96
2022-08-30T06:31:45.646Z,88.22
2022-08-30T06:34:48.374Z,88.30
2022-08-30T06:37:49.945Z,88.59
2022-08-30T06:40:51.556Z,88.59
2022-08-30T06:43:53.326Z,89.18
2022-08-30T06:46:54.990Z,89.66
2022-08-30T06:49:57.223Z,89.79
2022-08-30T06:53:04.470Z,89.37
2022-08-30T06:56:07.745Z,89.05
2022-08-30T06:59:09.365Z,87.27
2022-08-30T07:02:11.199Z,88.00
2022-08-30T07:05:17.994Z,87.43
2022-08-30T07:08:20.637Z,86.66
2022-08-30T07:11:28.419Z,86.51
2022-08-30T07:14:30.282Z,86.29
2022-08-30T07:17:50.606Z,85.07
2022-08-30T07:20:52.234Z,84.51
2022-08-30T07:23:54.506Z,84.72
2022-08-30T07:26:56.077Z,84.46
2022-08-30T07:29:58.876Z,84.44
2022-08-30T07:33:00.691Z,83.59
2022-08-30T07:36:02.395Z,83.11
2022-08-30T07:39:04.586Z,83.34
2022-08-30T07:42:06.613Z,82.39
2022-08-30T07:45:08.902Z,83.73
2022-08-30T07:48:12.651Z,83.03
2022-08-30T07:51:19.534Z,82.85
2022-08-30T07:54:21.154Z,82.27
2022-08-30T07:57:22.893Z,81.76
2022-08-30T08:00:25.074Z,78.55
2022-08-30T08:03:26.846Z,77.14
2022-08-30T08:06:29.779Z,78.25
2022-08-30T08:09:37.317Z,77.39
2022-08-30T08:12:39.196Z,77.93
2022-08-30T08:15:40.828Z,75.65
2022-08-30T08:18:42.457Z,75.05
2022-08-30T08:21:44.006Z,76.59
2022-08-30T08:24:46.069Z,76.50
2022-08-30T08:27:48.980Z,77.70
2022-08-30T08:30:50.698Z,76.62
2022-08-30T08:33:52.403Z,76.25
2022-08-30T08:36:54.129Z,76.33
2022-08-30T08:39:55.813Z,75.70
2022-08-30T08:43:05.654Z,73.84
2022-08-30T08:46:07.220Z,74.28
2022-08-30T08:49:11.147Z,73.95
2022-08-30T08:52:37.266Z,72.70
2022-08-30T08:55:40.886Z,70.44
2022-08-30T08:58:44.238Z,71.83
2022-08-30T09:01:46.076Z,72.43
2022-08-30T09:04:47.666Z,69.65
2022-08-30T09:07:52.223Z,68.36
2022-08-30T09:10:56.953Z,65.11
2022-08-30T09:13:58.553Z,64.18
2022-08-30T09:20:33.749Z,61.84
2022-08-30T09:23:35.328Z,61.71
2022-08-30T09:26:38.100Z,59.87
2022-08-30T09:29:43.621Z,57.44
2022-08-30T09:32:53.226Z,57.52
2022-08-30T09:35:55.876Z,56.08
2022-08-30T09:39:01.691Z,57.55
2022-08-30T09:42:14.109Z,57.90
2022-08-30T09:45:20.346Z,59.42
2022-08-30T09:48:37.704Z,54.64
2022-08-30T09:51:40.871Z,55.85
2022-08-30T09:55:04.385Z,57.89
2022-08-30T09:58:11.166Z,59.30
2022-08-30T10:01:15.610Z,59.83
2022-08-30T10:04:32.358Z,57.87
2022-08-30T10:07:39.945Z,56.69
2022-08-30T10:10:50.487Z,57.79
2022-08-30T10:13:56.401Z,57.71
2022-08-30T10:17:11.312Z,56.09
2022-08-30T10:20:30.525Z,55.54
2022-08-30T10:23:33.089Z,54.44
2022-08-30T10:26:45.625Z,53.33
2022-08-30T10:29:49.706Z,53.28
2022-08-30T10:32:53.536Z,52.09
2022-08-30T10:35:57.050Z,52.33
2022-08-30T10:38:58.599Z,51.36
2022-08-30T10:42:02.464Z,52.62
2022-08-30T10:45:06.021Z,53.04
2022-08-30T10:48:16.662Z,54.70
2022-08-30T10:51:29.222Z,54.43
2022-08-30T10:54:35.144Z,55.11
2022-08-30T10:57:37.107Z,54.72
2022-08-30T11:00:50.681Z,53.32
2022-08-30T11:03:55.537Z,52.18
2022-08-30T11:07:20.652Z,51.53
2022-08-30T11:10:26.040Z,50.39
2022-08-30T11:13:29.762Z,50.95
2022-08-30T11:16:38.075Z,50.87
2022-08-30T11:19:39.935Z,51.70
2022-08-30T11:22:42.423Z,49.96
2022-08-30T11:26:03.092Z,47.75
2022-08-30T11:29:04.993Z,44.65
2022-08-30T11:32:15.893Z,46.23
2022-08-30T11:35:36.847Z,47.87
2022-08-30T11:38:38.404Z,48.83
2022-08-30T11:41:42.589Z,49.67
2022-08-30T11:44:44.807Z,49.59
2022-08-30T11:47:48.479Z,49.84
2022-08-30T11:50:52.622Z,48.56
2022-08-30T11:54:06.454Z,46.52
2022-08-30T11:57:20.015Z,44.78
2022-08-30T12:00:30.647Z,44.20
2022-08-30T12:03:35.929Z,46.08
2022-08-30T12:06:40.970Z,47.39
2022-08-30T12:09:45.439Z,48.33
2022-08-30T12:12:47.784Z,48.71
2022-08-30T12:15:54.990Z,45.52
2022-08-30T12:19:00.244Z,43.46
2022-08-30T12:22:06.078Z,43.15
2022-08-30T12:25:16.010Z,43.99
2022-08-30T12:28:22.536Z,45.77
2022-08-30T12:31:25.907Z,45.31
2022-08-30T12:34:29.033Z,44.46
2022-08-30T12:37:30.573Z,44.95
2022-08-30T12:40:34.526Z,45.71
2022-08-30T12:43:40.163Z,44.31
2022-08-30T12:46:43.748Z,45.69
2022-08-30T12:49:46.383Z,45.38
2022-08-30T12:52:59.105Z,43.78
2022-08-30T12:56:07.006Z,43.25
2022-08-30T12:59:09.928Z,43.99
2022-08-30T13:02:20.353Z,44.02
2022-08-30T13:05:42.970Z,43.37
2022-08-30T13:08:46.773Z,43.03
2022-08-30T13:11:48.663Z,43.27
2022-08-30T13:14:50.462Z,44.02
2022-08-30T13:18:12.472Z,44.11
2022-08-30T13:21:24.977Z,44.76
2022-08-30T13:24:27.059Z,44.74
2022-08-30T13:27:29.394Z,45.06
2022-08-30T13:30:31.563Z,45.43
2022-08-30T13:33:33.173Z,45.46
2022-08-30T13:36:36.073Z,45.38
2022-08-30T13:39:38.495Z,44.87
2022-08-30T13:42:43.008Z,44.61
2022-08-30T13:45:44.630Z,44.19
2022-08-30T13:48:46.362Z,43.05
2022-08-30T13:52:09.487Z,44.74
2022-08-30T13:55:10.114Z,44.22
2022-08-30T13:58:13.302Z,45.89
2022-08-30T14:01:15.662Z,45.05
2022-08-30T14:04:18.181Z,42.51
2022-08-30T14:07:20.921Z,43.14
2022-08-30T14:10:32.586Z,43.98
2022-08-30T14:13:36.916Z,43.37
2022-08-30T14:16:42.299Z,41.55
2022-08-30T14:19:43.937Z,40.88
2022-08-30T14:22:45.476Z,42.08
2022-08-30T14:25:48.984Z,43.29
2022-08-30T14:28:52.357Z,44.54
2022-08-30T14:31:54.053Z,44.23
2022-08-30T14:34:55.685Z,43.30
2022-08-30T14:37:57.361Z,40.01
2022-08-30T14:40:58.930Z,39.81
2022-08-30T14:44:02.563Z,40.08
2022-08-30T14:47:04.949Z,38.79
2022-08-30T14:50:06.845Z,37.03
2022-08-30T14:53:08.627Z,35.94
2022-08-30T14:56:11.214Z,35.14
2022-08-30T14:59:13.390Z,36.14
2022-08-30T15:02:15.465Z,36.92
2022-08-30T15:05:17.495Z,37.02
2022-08-30T15:08:19.296Z,38.91
2022-08-30T15:11:22.088Z,40.49
2022-08-30T15:14:24.286Z,42.29
2022-08-30T15:17:26.022Z,42.94
2022-08-30T15:20:27.634Z,40.53
2022-08-30T15:23:29.225Z,38.10
2022-08-30T15:26:31.305Z,35.99
2022-08-30T15:29:33.125Z,35.62
2022-08-30T15:32:34.675Z,35.90
2022-08-30T15:35:36.337Z,37.81
2022-08-30T15:38:38.846Z,37.37
2022-08-30T15:41:43.800Z,37.07
2022-08-30T15:44:46.492Z,34.65
2022-08-30T15:47:48.408Z,32.32
2022-08-30T15:50:56.766Z,32.57
2022-08-30T15:53:58.583Z,33.47
2022-08-30T15:57:00.314Z,35.64
2022-08-30T16:00:06.452Z,33.18
2022-08-30T16:03:10.062Z,31.43
2022-08-30T16:06:12.689Z,31.33
2022-08-30T16:09:14.298Z,30.88
2022-08-30T16:12:22.480Z,31.14
2022-08-30T16:15:25.689Z,29.89
2022-08-30T16:18:27.572Z,30.90
2022-08-30T16:21:30.486Z,29.80
2022-08-30T16:24:32.319Z,31.12
2022-08-30T16:27:35.014Z,32.60
2022-08-30T16:30:36.933Z,30.87
2022-08-30T16:33:43.053Z,31.83
2022-08-30T16:36:45.673Z,31.68
2022-08-30T16:39:47.392Z,31.73
2022-08-30T16:42:50.223Z,33.15
2022-08-30T16:45:52.342Z,34.66
2022-08-30T16:48:56.371Z,34.51
2022-08-30T16:51:58.010Z,33.73
2022-08-30T16:55:00.938Z,34.53
2022-08-30T16:58:04.733Z,35.04
2022-08-30T17:01:06.353Z,35.78
2022-08-30T17:04:08.321Z,36.76
2022-08-30T17:07:13.802Z,36.24
2022-08-30T17:10:16.673Z,36.42
2022-08-30T17:13:25.007Z,36.51
2022-08-30T17:16:28.080Z,40.34
2022-08-30T17:19:30.373Z,39.69
2022-08-30T17:22:32.400Z,38.33
2022-08-30T17:25:34.239Z,37.73
2022-08-30T17:28:35.862Z,38.55
2022-08-30T17:31:38.869Z,37.77
2022-08-30T17:34:40.703Z,37.66
2022-08-30T17:37:42.622Z,39.09
2022-08-30T17:40:44.420Z,39.32
2022-08-30T17:43:46.541Z,39.78
2022-08-30T17:46:48.392Z,39.92
2022-08-30T17:49:50.032Z,39.74
2022-08-30T17:52:52.558Z,39.59
2022-08-30T17:55:55.118Z,38.71
2022-08-30T17:58:56.767Z,39.41
2022-08-30T18:01:59.179Z,39.56
2022-08-30T18:05:00.905Z,39.61
2022-08-30T18:08:02.675Z,39.52
2022-08-30T18:11:05.932Z,39.88
2022-08-30T18:14:08.095Z,41.08
2022-08-30T18:17:12.809Z,41.97
2022-08-30T18:20:14.762Z,42.74
2022-08-30T18:23:17.750Z,43.35
2022-08-30T18:26:19.555Z,44.22
2022-08-30T18:29:30.438Z,44.31
2022-08-30T18:32:36.213Z,44.97
2022-08-30T18:35:47.444Z,47.24
2022-08-30T18:38:50.084Z,50.61
2022-08-30T18:41:54.400Z,52.64
2022-08-30T18:44:58.465Z,54.58
2022-08-30T18:48:14.425Z,55.18
2022-08-30T18:51:17.481Z,56.17
2022-08-30T18:54:19.190Z,56.89
2022-08-30T18:57:22.077Z,57.45
2022-08-30T19:00:23.729Z,57.82
2022-08-30T19:03:25.321Z,58.87
2022-08-30T19:06:26.971Z,59.49
2022-08-30T19:09:28.610Z,59.33
2022-08-30T19:12:30.472Z,59.99
2022-08-30T19:15:34.107Z,61.00
2022-08-30T19:18:36.994Z,61.03
2022-08-30T19:21:38.542Z,61.25
2022-08-30T19:24:40.207Z,61.70
2022-08-30T19:27:41.950Z,62.95
2022-08-30T19:30:43.853Z,64.28
2022-08-30T19:33:45.420Z,65.70
2022-08-30T19:36:47.753Z,66.90
2022-08-30T19:39:49.387Z,67.41
2022-08-30T19:42:51.623Z,67.74
2022-08-30T19:45:56.439Z,69.62
2022-08-30T19:48:58.533Z,70.06
2022-08-30T19:52:00.125Z,70.76
2022-08-30T19:55:02.979Z,70.34
2022-08-30T19:58:04.715Z,70.13
2022-08-30T20:01:10.838Z,69.82
2022-08-30T20:04:15.769Z,68.91
2022-08-30T20:07:25.258Z,69.63
2022-08-30T20:10:29.169Z,70.62
2022-08-30T20:13:33.615Z,71.32
2022-08-30T20:16:37.844Z,71.36
2022-08-30T20:19:39.785Z,71.84
2022-08-30T20:22:41.347Z,72.37
2022-08-30T20:25:53.353Z,72.86
2022-08-30T20:28:54.985Z,73.31
2022-08-30T20:31:57.008Z,74.28
2022-08-30T20:34:59.158Z,76.24
2022-08-30T20:38:06.320Z,76.12
2022-08-30T20:41:11.704Z,76.94
2022-08-30T20:44:15.086Z,77.82
2022-08-30T20:47:17.457Z,77.78
2022-08-30T20:50:19.247Z,78.43
2022-08-30T20:53:20.799Z,79.22
2022-08-30T20:56:22.552Z,80.55
2022-08-30T20:59:24.188Z,81.21
2022-08-30T21:02:25.928Z,81.34
2022-08-30T21:05:27.565Z,82.28
2022-08-30T21:08:29.245Z,82.47
2022-08-30T21:11:31.100Z,83.28
2022-08-30T21:14:32.693Z,82.96
2022-08-30T21:17:34.301Z,83.21
2022-08-30T21:20:36.094Z,83.93
2022-08-30T21:23:37.742Z,84.18
2022-08-30T21:26:40.437Z,84.78
2022-08-30T21:29:42.152Z,85.51
2022-08-30T21:32:43.745Z,86.27
2022-08-30T21:36:04.053Z,86.23
2022-08-30T21:39:06.470Z,86.24
2022-08-30T21:42:09.054Z,86.77
2022-08-30T21:45:10.762Z,86.68
2022-08-30T21:48:12.674Z,87.78
2022-08-30T21:51:14.358Z,86.65
2022-08-30T21:54:16.537Z,87.68
2022-08-30T21:57:18.358Z,88.30
2022-08-30T22:00:21.061Z,88.62
2022-08-30T22:03:22.675Z,88.18
2022-08-30T22:06:30.605Z,88.72
2022-08-30T22:09:33.001Z,89.42
2022-08-30T22:12:34.913Z,89.91
2022-08-30T22:15:39.155Z,90.35
2022-08-30T22:18:41.159Z,90.09
2022-08-30T22:21:43.805Z,90.59
2022-08-30T22:24:45.439Z,90.05
2022-08-30T22:27:47.097Z,90.27
2022-08-30T22:30:48.982Z,90.59
2022-08-30T22:33:51.255Z,90.63
2022-08-30T22:36:52.873Z,90.80
2022-08-30T22:39:54.773Z,90.75
2022-08-30T22:42:56.358Z,90.55
2022-08-30T22:45:58.089Z,90.37
2022-08-30T22:48:59.802Z,89.81
2022-08-30T22:52:01.362Z,89.88
2022-08-30T22:55:04.243Z,89.91
2022-08-30T22:58:05.879Z,90.23
2022-08-30T23:01:07.620Z,90.36
2022-08-30T23:04:09.416Z,90.30
2022-08-30T23:07:11.021Z,90.89
2022-08-30T23:10:12.975Z,90.99
2022-08-30T23:13:14.521Z,91.27
2022-08-30T23:16:16.324Z,92.00
2022-08-30T23:19:18.667Z,92.12
2022-08-30T23:22:20.321Z,92.32
2022-08-30T23:25:41.659Z,92.92
2022-08-30T23:29:04.688Z,93.10
2022-08-30T23:32:24.871Z,93.56
2022-08-30T23:35:45.198Z,93.41
2022-08-30T23:39:05.504Z,93.09
2022-08-30T23:42:25.772Z,93.59
2022-08-30T23:45:46.053Z,93.78
2022-08-30T23:49:06.233Z,94.52
2022-08-30T23:52:26.522Z,94.35
2022-08-30T23:55:46.538Z,95.01
2022-08-30T23:59:06.393Z,94.72
